Miami, Florida
Traffic Map
Current Weather Conditions
Miami, Florida
Broken Clouds
Broken Clouds
30°
Feels Like: 34°
Wind Chill: 30° Ceiling: 25000
Heat Index: 34° Visibility: 10mi
Dew Point: 23° Wind: 8mph
Humidity: 67% Direction: 130° (SE)
Pressure: 30.03in Gusts: 0mph
Raw Report DataKMIA 282323Z 13007KT 090V160 10SM SCT034 SCT130 BKN250 30/23 A3003 RMK AO2 LTG DSNT NW TSE02 CB DSNT E AND W-NW T03000233
Traffic Incident Summary
Active as of:
Severity:
Category:
InformationThere was an issue retrieving the traffic information for this location. Please try a different location or try again shortly.
Advertisements
Track Severe Weather on mobile